Data for 10/07/2009

Time Sea-Level Adjusted Pressure Absolute Pressure Temperature Relative Humidity Dew Point   
(mb) (inHg) (mb) (inHg) (C) (F) (%) (C) (F)
00:05 1016 30 845 24.95 6.8 44.3 52 -2.3 27.8
00:10 1016 30 845 24.95 6.8 44.2 53 -2.2 28.1
00:15 1016 30 845 24.95 6.6 43.9 53 -2.2 28
00:20 1016 30 845 24.95 6.4 43.5 54 -2.1 28.1
00:25 1016 30 845 24.95 6.4 43.5 54 -2.2 28.1
00:30 1016 30 845 24.95 6.4 43.5 55 -1.9 28.5
00:35 1016 30 846 24.98 6.1 43 56 -1.9 28.6
00:40 1016 30 846 24.98 6.1 42.9 55 -2.2 28
00:45 1016 30 846 24.98 6 42.8 56 -2.1 28.3
00:50 1016 30 845 24.95 5.7 42.3 58 -2 28.5
00:55 1016 30 845 24.95 5.5 41.9 58 -2 28.4
01:00 1016 30 845 24.95 5.4 41.6 59 -2 28.4
01:05 1016 30 845 24.95 5.2 41.3 61 -1.8 28.8
01:10 1016 30 845 24.95 5.1 41.2 60 -2 28.4
01:15 1016 30 845 24.95 5.1 41.2 60 -1.9 28.5
01:20 1016 30 845 24.95 5.1 41.1 61 -1.8 28.7
01:25 1016 30 845 24.95 4.8 40.7 63 -1.6 29.2
01:30 1016 30 845 24.95 4.7 40.4 63 -1.7 28.9
01:35 1016 30 845 24.95 4.8 40.6 64 -1.5 29.3
01:40 1016 30 845 24.95 4.8 40.6 64 -1.5 29.3
01:45 1016 30 845 24.95 4.8 40.6 63 -1.6 29.1
01:50 1016 30 845 24.95 4.9 40.7 63 -1.6 29.2
01:55 1016 30 845 24.95 4.9 40.9 61 -1.9 28.6
02:00 1016 30 845 24.95 5.2 41.3 61 -1.8 28.7
02:05 1016 30 845 24.95 5.2 41.3 65 -0.9 30.4
02:10 1016 30 845 24.95 4.8 40.7 64 -1.4 29.6
02:15 1016 30 845 24.95 4.7 40.5 64 -1.5 29.2
02:20 1016 30 845 24.95 4.7 40.4 66 -1.1 30
02:25 1016 30 845 24.95 4.6 40.4 67 -1 30.1
02:30 1016 30 845 24.95 4.7 40.5 68 -0.7 30.8
02:35 1016 30 845 24.95 4.3 39.8 70 -0.6 30.9
02:40 1016 30 845 24.95 3.9 39 72 -0.7 30.7
02:45 1016 30 845 24.95 3.9 39 69 -1.2 29.8
02:50 1016 30 845 24.95 4.3 39.7 67 -1.3 29.7
02:55 1016 30 845 24.95 4.3 39.8 69 -0.9 30.4
03:00 1016 30 845 24.95 4.1 39.3 71 -0.7 30.8
03:05 1016 30 845 24.95 3.8 38.8 73 -0.7 30.8
03:10 1016 30 845 24.95 3.7 38.6 72 -0.8 30.5
03:15 1016 30 845 24.95 3.7 38.6 70 -1.3 29.6
03:20 1016 30 845 24.95 4.1 39.3 69 -1.2 29.8
03:25 1016 30 845 24.95 4.6 40.2 62 -2 28.4
03:30 1016 30 845 24.95 4.8 40.6 63 -1.6 29.2
03:35 1016 30 845 24.95 4.6 40.3 66 -1.1 30
03:40 1016 30 845 24.95 4.2 39.5 69 -1 30.2
03:45 1016 30 845 24.95 3.8 38.9 70 -1.1 30
03:50 1016 30 845 24.95 3.7 38.6 72 -0.8 30.5
03:55 1016 30 845 24.95 3.5 38.4 74 -0.7 30.7
04:00 1016 30 845 24.95 3.4 38.1 73 -1 30.2
04:05 1016 30 845 24.95 3.5 38.3 72 -1 30.2
04:10 1016 30 845 24.95 3.7 38.6 74 -0.6 31
04:15 1016 30 845 24.95 3.7 38.7 73 -0.6 30.8
04:20 1016 30 845 24.95 3.9 38.9 74 -0.4 31.3
04:25 1016 30 845 24.95 3.8 38.8 73 -0.7 30.8
04:30 1016 30 845 24.95 3.8 38.8 74 -0.4 31.3
04:35 1016 30 845 24.95 3.7 38.7 75 -0.3 31.4
04:40 1016 30 845 24.95 3.4 38.1 77 -0.3 31.4
04:45 1016 30 845 24.95 3.4 38.2 76 -0.4 31.2
04:50 1016 30 845 24.95 3.4 38 76 -0.6 31
04:55 1016 30 845 24.95 3.4 38.2 76 -0.4 31.3
05:00 1016 30 845 24.95 3.6 38.4 77 -0.1 31.8
05:05 1016 30 845 24.95 3.5 38.3 78 0 32.1
05:10 1016 30 845 24.95 3.4 38.2 76 -0.3 31.4
05:15 1016 30 845 24.95 3.5 38.3 75 -0.5 31.2
05:20 1016 30 845 24.95 3.6 38.4 74 -0.7 30.8
05:25 1016 30 845 24.95 3.7 38.6 73 -0.7 30.7
05:30 1016 30 845 24.95 3.6 38.5 73 -0.8 30.5
05:35 1016 30 845 24.95 3.6 38.4 71 -1.2 29.9
05:40 1016 30 845 24.95 3.8 38.9 71 -0.9 30.4
05:45 1016 30 845 24.95 3.8 38.8 71 -1.1 30.1
05:50 1016 30 845 24.95 3.8 38.9 69 -1.3 29.6
05:55 1016 30 845 24.95 3.9 39 69 -1.2 29.8
06:00 1016 30 845 24.95 3.7 38.7 71 -1.1 30.1
06:05 1016 30 845 24.95 3.7 38.7 70 -1.2 29.8
06:10 1016 30 845 24.95 3.8 38.8 69 -1.4 29.5
06:15 1016 30 845 24.95 3.7 38.6 71 -1.1 30.1
06:20 1016 30 845 24.95 3.5 38.4 73 -0.9 30.3
06:25 1016 30 845 24.95 3.4 38.2 74 -0.8 30.6
06:30 1016 30 845 24.95 3.3 38 76 -0.6 31
06:35 1016 30 845 24.95 3.3 37.9 76 -0.6 31
06:40 1016 30 845 24.95 3.4 38 76 -0.4 31.3
06:45 1016 30 845 24.95 3.3 38 77 -0.4 31.3
06:50 1016 30 845 24.95 3.2 37.8 79 -0.1 31.8
06:55 1016 30 845 24.95 3.2 37.7 79 -0.1 31.8
07:00 1016 30 846 24.98 3.3 38 78 -0.1 31.7
07:05 1016 30 845 24.95 3.4 38.1 80 0.2 32.3
07:10 1016 30 845 24.95 3.1 37.6 80 0.1 32.1
07:15 1016 30 845 24.95 3 37.4 82 0.3 32.5
07:20 1016 30 845 24.95 2.8 37 83 0.2 32.3
07:25 1016 30 845 24.95 2.8 37 83 0.2 32.4
07:30 1016 30 845 24.95 2.7 36.9 85 0.4 32.7
07:35 1016 30 845 24.95 2.8 37.1 83 0.2 32.3
07:40 1016 30 845 24.95 2.9 37.2 83 0.2 32.4
07:45 1016 30 846 24.98 2.9 37.2 81 0 32.1
07:50 1016 30 846 24.98 2.9 37.1 79 -0.3 31.4
07:55 1016 30 846 24.98 2.8 37.1 80 -0.2 31.6
08:00 1016 30 846 24.98 2.8 37.1 81 -0.1 31.9
08:05 1016 30 846 24.98 2.7 36.9 81 -0.2 31.6
08:10 1016 30 846 24.98 2.5 36.6 81 -0.4 31.2
08:15 1017 30.03 846 24.98 2.3 36.2 80 -0.7 30.7
08:20 1017 30.03 846 24.98 2.1 35.8 81 -0.8 30.5
08:25 1017 30.03 846 24.98 1.8 35.2 83 -0.8 30.5
08:30 1017 30.03 846 24.98 1.7 35 84 -0.8 30.5
08:35 1017 30.03 846 24.98 1.5 34.8 84 -0.9 30.5
08:40 1017 30.03 846 24.98 1.5 34.7 84 -0.8 30.5
08:45 1017 30.03 846 24.98 1.6 34.9 82 -1.1 30
08:50 1017 30.03 846 24.98 1.6 34.9 84 -0.8 30.6
08:55 1017 30.03 846 24.98 1.6 34.9 84 -0.8 30.6
09:00 1017 30.03 846 24.98 1.5 34.7 85 -0.7 30.8
09:05 1017 30.03 846 24.98 1.6 34.8 86 -0.5 31
09:10 1017 30.03 846 24.98 1.5 34.7 87 -0.5 31.1
09:15 1017 30.03 846 24.98 1.5 34.8 86 -0.6 30.9
09:20 1017 30.03 846 24.98 1.5 34.7 87 -0.4 31.2
09:25 1017 30.03 846 24.98 1.5 34.7 87 -0.5 31.1
09:30 1017 30.03 846 24.98 1.4 34.5 88 -0.4 31.4
09:35 1017 30.03 846 24.98 1.3 34.3 90 -0.2 31.7
09:40 1017 30.03 846 24.98 1 33.8 91 -0.3 31.4
09:45 1017 30.03 846 24.98 0.9 33.6 92 -0.2 31.6
09:50 1017 30.03 846 24.98 0.9 33.6 91 -0.4 31.2
09:55 1017 30.03 846 24.98 0.8 33.5 91 -0.4 31.2
10:00 1017 30.03 846 24.98 0.9 33.6 91 -0.4 31.4
10:05 1017 30.03 846 24.98 0.9 33.6 91 -0.4 31.3
10:10 1017 30.03 846 24.98 0.8 33.5 93 -0.3 31.5
10:15 1017 30.03 846 24.98 1 33.8 90 -0.5 31.2
10:20 1017 30.03 846 24.98 0.6 33.2 92 -0.4 31.2
10:25 1017 30.03 846 24.98 0.5 32.9 93 -0.5 31.1
10:30 1017 30.03 846 24.98 0.4 32.7 94 -0.4 31.2
10:35 1017 30.03 846 24.98 0.5 32.9 94 -0.3 31.4
10:40 1017 30.03 846 24.98 0.5 32.8 95 -0.3 31.5
10:45 1017 30.03 846 24.98 0.4 32.8 94 -0.4 31.2
10:50 1017 30.03 846 24.98 0.3 32.6 94 -0.5 31.1
10:55 1017 30.03 846 24.98 0.5 32.9 94 -0.4 31.2
11:00 1017 30.03 846 24.98 0.4 32.7 95 -0.4 31.4
11:05 1017 30.03 846 24.98 0.4 32.7 95 -0.4 31.3
11:10 1017 30.03 846 24.98 0.4 32.7 95 -0.4 31.4
11:15 1017 30.03 846 24.98 0.4 32.6 96 -0.2 31.6
11:20 1017 30.03 846 24.98 0.5 32.8 92 -0.6 30.9
11:25 1017 30.03 846 24.98 0.6 33 89 -1 30.2
11:35 1017 30.03 846 24.98 0.7 33.3 86 -1.3 29.6
11:40 1017 30.03 846 24.98 0.7 33.3 86 -1.4 29.5
11:45 1017 30.03 846 24.98 0.7 33.3 86 -1.4 29.6
11:50 1017 30.03 846 24.98 0.1 32.2 89 -1.6 29.2
11:55 1017 30.03 846 24.98 0.1 32.1 90 -1.3 29.6
12:00 1017 30.03 846 24.98 -0.2 31.7 92 -1.4 29.6
12:05 1017 30.03 846 24.98 -0.1 31.8 91 -1.4 29.5
12:10 1017 30.03 846 24.98 0.1 32.1 91 -1.3 29.7
12:15 1017 30.03 846 24.98 -0.3 31.5 92 -1.5 29.3
12:20 1017 30.03 846 24.98 -0.3 31.5 92 -1.5 29.3
12:25 1017 30.03 846 24.98 0.1 32.2 91 -1.2 29.8
12:30 1017 30.03 846 24.98 0.4 32.7 89 -1.3 29.7
12:35 1017 30.03 846 24.98 -0.1 31.9 91 -1.4 29.4
12:40 1017 30.03 846 24.98 -0.4 31.3 92 -1.5 29.2
12:45 1017 30.03 846 24.98 -0.2 31.6 92 -1.3 29.6
12:50 1017 30.03 846 24.98 0.1 32.3 89 -1.4 29.5
12:55 1017 30.03 846 24.98 -0.2 31.6 91 -1.5 29.4
13:00 1017 30.03 846 24.98 -0.5 31.2 94 -1.4 29.5
13:05 1017 30.03 846 24.98 -0.3 31.5 92 -1.4 29.6
13:10 1017 30.03 846 24.98 -0.3 31.5 93 -1.2 29.8
13:15 1017 30.03 846 24.98 -0.2 31.7 92 -1.3 29.7
13:20 1017 30.03 846 24.98 -0.2 31.6 94 -1.1 29.9
13:25 1017 30.03 846 24.98 -0.1 31.8 92 -1.3 29.7
13:30 1017 30.03 846 24.98 -0.2 31.6 90 -1.6 29.1
13:35 1017 30.03 846 24.98 -0.4 31.3 92 -1.6 29.1
13:40 1017 30.03 846 24.98 -0.4 31.4 91 -1.6 29.1
13:45 1017 30.03 846 24.98 -0.4 31.2 91 -1.7 29
13:50 1017 30.03 846 24.98 -0.4 31.2 92 -1.6 29.1
13:55 1017 30.03 846 24.98 -0.3 31.4 93 -1.4 29.5
14:00 1017 30.03 846 24.98 -0.2 31.6 92 -1.4 29.5
14:05 1017 30.03 846 24.98 0.1 32.2 91 -1.3 29.7
14:10 1017 30.03 846 24.98 0.2 32.4 91 -1.1 30
14:15 1017 30.03 846 24.98 0.2 32.4 90 -1.2 29.8
14:20 1017 30.03 846 24.98 0.5 32.9 89 -1.1 30
14:25 1017 30.03 846 24.98 0.4 32.7 91 -0.9 30.4
14:30 1017 30.03 846 24.98 -0.2 31.7 89 -1.7 28.9
14:35 1017 30.03 846 24.98 -0.3 31.4 90 -1.7 28.9
14:40 1017 30.03 846 24.98 -0.1 31.8 90 -1.6 29.2
14:45 1017 30.03 846 24.98 -0 32 87 -1.9 28.6
14:50 1017 30.03 846 24.98 -0.1 31.8 90 -1.6 29.1
14:55 1017 30.03 846 24.98 -0.2 31.6 90 -1.7 28.9
15:00 1017 30.03 846 24.98 -0.5 31.1 91 -1.8 28.8
15:05 1017 30.03 846 24.98 -0.7 30.8 93 -1.7 28.9
15:10 1017 30.03 846 24.98 -0.6 31 93 -1.5 29.3
15:15 1017 30.03 846 24.98 -0.5 31.1 93 -1.5 29.3
15:20 1017 30.03 846 24.98 -0.5 31.2 93 -1.5 29.3
15:25 1017 30.03 846 24.98 -0.7 30.8 92 -1.8 28.7
15:30 1017 30.03 846 24.98 -1 30.2 94 -1.8 28.7
15:35 1017 30.03 847 25.01 -1.1 30.1 95 -1.7 28.9
15:40 1017 30.03 847 25.01 -0.9 30.3 95 -1.7 29
15:45 1017 30.03 847 25.01 -1 30.1 96 -1.6 29.2
15:50 1017 30.03 847 25.01 -0.9 30.4 96 -1.4 29.4
15:55 1017 30.03 847 25.01 -1 30.2 96 -1.5 29.2
16:00 1017 30.03 847 25.01 -1.1 30.1 97 -1.6 29.2
16:05 1017 30.03 847 25.01 -1 30.2 97 -1.5 29.3
16:10 1017 30.03 847 25.01 -1 30.2 97 -1.4 29.4
16:15 1018 30.06 847 25.01 -1 30.2 96 -1.5 29.3
16:20 1018 30.06 847 25.01 -1.3 29.7 95 -2 28.3
16:25 1018 30.06 847 25.01 -1.3 29.6 94 -2.2 28
16:30 1018 30.06 847 25.01 -1.6 29.2 94 -2.4 27.8
16:35 1018 30.06 847 25.01 -1.6 29.2 95 -2.3 27.8
16:40 1018 30.06 847 25.01 -1.5 29.3 96 -2.1 28.2
16:45 1018 30.06 847 25.01 -1.4 29.4 95 -2.2 28.1
16:50 1018 30.06 847 25.01 -1.5 29.2 95 -2.3 27.9
16:55 1018 30.06 847 25.01 -1.5 29.2 94 -2.3 27.8
17:00 1018 30.06 847 25.01 -1.6 29.2 95 -2.3 27.9
17:05 1018 30.06 847 25.01 -1.5 29.3 95 -2.2 28
17:10 1018 30.06 847 25.01 -1.5 29.2 96 -2.1 28.1
17:15 1018 30.06 847 25.01 -1.6 29.1 96 -2.2 28
17:20 1018 30.06 847 25.01 -1.6 29.1 96 -2.2 28
17:25 1018 30.06 847 25.01 -1.6 29.1 96 -2.2 28.1
17:30 1018 30.06 847 25.01 -1.6 29 96 -2.3 27.9
17:35 1018 30.06 848 25.04 -1.7 28.9 96 -2.3 27.9
17:40 1018 30.06 848 25.04 -1.8 28.8 96 -2.3 27.9
17:45 1019 30.09 848 25.04 -1.7 28.9 96 -2.2 28
17:50 1019 30.09 848 25.04 -1.7 28.9 97 -2.1 28.1
17:55 1018 30.06 848 25.04 -1.6 29.2 97 -2 28.5
18:00 1019 30.09 848 25.04 -1.4 29.4 97 -1.8 28.7
18:05 1019 30.09 848 25.04 -1.4 29.6 97 -1.7 28.9
18:10 1018 30.06 848 25.04 -1.3 29.7 97 -1.7 29
18:15 1019 30.09 848 25.04 -1.3 29.6 97 -1.7 28.9
18:20 1019 30.09 848 25.04 -1.4 29.5 97 -1.8 28.7
18:25 1019 30.09 848 25.04 -1.5 29.2 97 -2 28.4
18:30 1019 30.09 848 25.04 -1.6 29.1 96 -2.1 28.2
18:35 1019 30.09 848 25.04 -1.8 28.8 96 -2.3 27.9
18:40 1019 30.09 848 25.04 -1.8 28.8 96 -2.3 27.9
18:45 1019 30.09 848 25.04 -1.8 28.8 97 -2.2 28
18:50 1019 30.09 848 25.04 -1.8 28.8 96 -2.3 27.9
18:55 1019 30.09 848 25.04 -1.8 28.8 96 -2.3 27.9
19:00 1019 30.09 848 25.04 -1.8 28.8 95 -2.5 27.5
19:05 1019 30.09 848 25.04 -1.9 28.6 93 -2.9 26.9
19:10 1019 30.09 848 25.04 -1.9 28.6 93 -2.8 26.9
19:15 1019 30.09 848 25.04 -1.9 28.6 93 -2.9 26.7
19:20 1019 30.09 848 25.04 -1.9 28.5 93 -2.9 26.7
19:25 1019 30.09 848 25.04 -1.9 28.6 92 -3 26.5
19:30 1019 30.09 848 25.04 -1.9 28.6 93 -2.9 26.7
19:35 1019 30.09 848 25.04 -2 28.5 93 -3 26.7
19:40 1019 30.09 849 25.07 -2 28.4 93 -3 26.6
19:45 1019 30.09 849 25.07 -2 28.4 93 -2.9 26.8
19:50 1019 30.09 849 25.07 -2 28.4 94 -2.9 26.8
19:55 1019 30.09 849 25.07 -2 28.4 93 -3 26.7
20:00 1019 30.09 849 25.07 -2 28.4 93 -3 26.5
20:05 1019 30.09 849 25.07 -2 28.3 93 -3.1 26.4
20:10 1019 30.09 849 25.07 -2.1 28.3 93 -3.1 26.4
20:15 1019 30.09 849 25.07 -2.1 28.3 93 -3 26.6
20:20 1019 30.09 849 25.07 -2 28.3 94 -2.9 26.8
20:25 1020 30.12 849 25.07 -2.1 28.3 94 -3 26.7
20:30 1020 30.12 849 25.07 -2 28.4 93 -3 26.5
20:35 1020 30.12 849 25.07 -2 28.4 93 -3 26.6
20:40 1020 30.12 849 25.07 -2 28.5 93 -2.9 26.8
20:45 1020 30.12 849 25.07 -1.9 28.5 90 -3.4 26
20:50 1020 30.12 849 25.07 -1.9 28.6 90 -3.3 26
20:55 1020 30.12 849 25.07 -1.9 28.5 89 -3.4 25.8
21:00 1020 30.12 849 25.07 -1.9 28.6 90 -3.4 26
21:05 1020 30.12 849 25.07 -1.9 28.5 90 -3.4 25.9
21:10 1020 30.12 849 25.07 -1.9 28.5 90 -3.4 25.9
21:15 1020 30.12 849 25.07 -2 28.4 91 -3.3 26.1
21:20 1020 30.12 849 25.07 -2 28.5 91 -3.3 26.1
21:25 1020 30.12 849 25.07 -2 28.4 90 -3.5 25.8
21:30 1020 30.12 849 25.07 -2 28.3 90 -3.4 25.8
21:35 1020 30.12 849 25.07 -2.1 28.2 91 -3.3 26
21:40 1020 30.12 849 25.07 -2.1 28.2 92 -3.3 26
21:45 1020 30.12 850 25.1 -2.1 28.2 91 -3.4 25.9
21:50 1020 30.12 850 25.1 -2.2 28.1 92 -3.3 26.1
21:55 1020 30.12 850 25.1 -2.2 28.1 92 -3.3 26.1
22:00 1020 30.12 850 25.1 -2.2 28 93 -3.3 26.1
22:05 1020 30.12 850 25.1 -2.2 28.1 91 -3.5 25.7
22:10 1020 30.12 850 25.1 -2.1 28.2 90 -3.6 25.6
22:15 1020 30.12 850 25.1 -2.1 28.2 90 -3.5 25.7
22:20 1020 30.12 850 25.1 -2.1 28.2 89 -3.6 25.4
22:25 1020 30.12 850 25.1 -2.1 28.2 89 -3.7 25.4
22:30 1020 30.12 850 25.1 -2.1 28.3 89 -3.7 25.4
22:35 1020 30.12 850 25.1 -2.1 28.3 88 -3.8 25.2
22:40 1021 30.15 850 25.1 -2.1 28.2 88 -3.8 25.1
22:45 1021 30.15 850 25.1 -2 28.3 87 -4 24.8
22:50 1021 30.15 850 25.1 -2 28.3 86 -4.2 24.5
22:55 1021 30.15 850 25.1 -2.1 28.3 86 -4.1 24.7
23:00 1021 30.15 850 25.1 -2.1 28.2 86 -4.1 24.6
23:05 1021 30.15 850 25.1 -2.1 28.2 87 -4.1 24.7
23:10 1021 30.15 850 25.1 -2.2 28.1 85 -4.4 24.1
23:15 1021 30.15 850 25.1 -2.1 28.2 86 -4.2 24.5
23:20 1021 30.15 850 25.1 -2.2 28.1 86 -4.2 24.5
23:25 1021 30.15 850 25.1 -2.2 28.1 87 -4 24.8
23:30 1021 30.15 850 25.1 -2.2 28.1 87 -4.1 24.7
23:35 1021 30.15 850 25.1 -2.2 28 88 -4 24.8
23:40 1020 30.12 850 25.1 -2.3 27.8 89 -3.9 25
23:45 1021 30.15 850 25.1 -2.4 27.7 90 -3.8 25.2
23:50 1021 30.15 850 25.1 -2.4 27.6 91 -3.7 25.3
23:55 1021 30.15 850 25.1 -2.5 27.5 91 -3.7 25.3
24:00 1021 30.15 850 25.1 -2.5 27.5 90 -3.9 25.1